Terminal Aerodrome Forecast
Issued by NWS

Home | Current Version | Previous Version | Text Only | Print | Product List | Glossary On
Versions: 1 2 3 4 5 6 7 8 9 10 11 12 13 14 15
000
FTUS46 KPDT 291100
TAFPSC
TAF
KPSC 291138Z 2912/3012 10004KT P6SM BKN120
     FM291900 23009KT P6SM SCT120
     FM300300 18005KT P6SM FEW120=

USA.gov is the U.S. government's official web portal to all federal, state and local government web resources and services.